sensor_id;sensor_type;location;lat;lon;timestamp;temperature;humidity
7684;DHT22;3884;48.616;12.872;2024-01-07T00:01:31;3.90;99.90
7684;DHT22;3884;48.616;12.872;2024-01-07T00:03:58;3.90;99.90
7684;DHT22;3884;48.616;12.872;2024-01-07T00:06:26;3.90;99.90
7684;DHT22;3884;48.616;12.872;2024-01-07T00:08:53;3.90;99.90
7684;DHT22;3884;48.616;12.872;2024-01-07T00:11:20;3.90;99.90
7684;DHT22;3884;48.616;12.872;2024-01-07T00:13:47;3.90;99.90
7684;DHT22;3884;48.616;12.872;2024-01-07T00:16:13;3.90;99.90
7684;DHT22;3884;48.616;12.872;2024-01-07T00:18:40;3.90;99.90
7684;DHT22;3884;48.616;12.872;2024-01-07T00:21:07;3.90;99.90
7684;DHT22;3884;48.616;12.872;2024-01-07T00:23:35;3.90;99.90
7684;DHT22;3884;48.616;12.872;2024-01-07T00:26:03;4.00;99.90
7684;DHT22;3884;48.616;12.872;2024-01-07T00:28:30;4.00;99.90
7684;DHT22;3884;48.616;12.872;2024-01-07T00:30:57;3.90;99.90
7684;DHT22;3884;48.616;12.872;2024-01-07T00:33:24;3.90;99.90
7684;DHT22;3884;48.616;12.872;2024-01-07T00:35:51;3.90;99.90
7684;DHT22;3884;48.616;12.872;2024-01-07T00:38:18;3.90;99.90
7684;DHT22;3884;48.616;12.872;2024-01-07T00:40:47;4.00;99.90
7684;DHT22;3884;48.616;12.872;2024-01-07T00:43:14;3.90;99.90
7684;DHT22;3884;48.616;12.872;2024-01-07T00:45:41;3.90;99.90
7684;DHT22;3884;48.616;12.872;2024-01-07T00:48:07;3.90;99.90
7684;DHT22;3884;48.616;12.872;2024-01-07T00:50:34;3.90;99.90
7684;DHT22;3884;48.616;12.872;2024-01-07T00:53:01;3.90;99.90
7684;DHT22;3884;48.616;12.872;2024-01-07T00:55:28;3.90;99.90
7684;DHT22;3884;48.616;12.872;2024-01-07T00:57:56;3.90;99.90
7684;DHT22;3884;48.616;12.872;2024-01-07T01:00:23;3.90;99.90
7684;DHT22;3884;48.616;12.872;2024-01-07T01:02:50;3.90;99.90
7684;DHT22;3884;48.616;12.872;2024-01-07T01:05:17;3.90;99.90
7684;DHT22;3884;48.616;12.872;2024-01-07T01:07:44;3.80;99.90
7684;DHT22;3884;48.616;12.872;2024-01-07T01:10:10;3.90;99.90
7684;DHT22;3884;48.616;12.872;2024-01-07T01:12:38;3.90;99.90
7684;DHT22;3884;48.616;12.872;2024-01-07T01:15:08;3.90;99.90
7684;DHT22;3884;48.616;12.872;2024-01-07T01:17:35;3.90;99.90
7684;DHT22;3884;48.616;12.872;2024-01-07T01:20:02;3.80;99.90
7684;DHT22;3884;48.616;12.872;2024-01-07T01:22:29;3.70;99.90
7684;DHT22;3884;48.616;12.872;2024-01-07T01:24:56;3.80;99.90
7684;DHT22;3884;48.616;12.872;2024-01-07T01:27:23;3.90;99.90
7684;DHT22;3884;48.616;12.872;2024-01-07T01:29:51;3.80;99.90
7684;DHT22;3884;48.616;12.872;2024-01-07T01:32:19;3.80;99.90
7684;DHT22;3884;48.616;12.872;2024-01-07T01:34:46;3.80;99.90
7684;DHT22;3884;48.616;12.872;2024-01-07T01:37:13;3.80;99.90
7684;DHT22;3884;48.616;12.872;2024-01-07T01:39:40;3.80;99.90
7684;DHT22;3884;48.616;12.872;2024-01-07T01:42:07;3.70;99.90
7684;DHT22;3884;48.616;12.872;2024-01-07T01:44:34;3.70;99.90
7684;DHT22;3884;48.616;12.872;2024-01-07T01:47:01;3.70;99.90
7684;DHT22;3884;48.616;12.872;2024-01-07T01:49:30;3.80;99.90
7684;DHT22;3884;48.616;12.872;2024-01-07T01:51:57;3.80;99.90
7684;DHT22;3884;48.616;12.872;2024-01-07T01:54:24;3.70;99.90
7684;DHT22;3884;48.616;12.872;2024-01-07T01:56:51;3.70;99.90
7684;DHT22;3884;48.616;12.872;2024-01-07T01:59:18;3.60;99.90
7684;DHT22;3884;48.616;12.872;2024-01-07T02:01:46;3.70;99.90
7684;DHT22;3884;48.616;12.872;2024-01-07T02:04:14;3.70;99.90
7684;DHT22;3884;48.616;12.872;2024-01-07T02:06:45;3.70;99.90
7684;DHT22;3884;48.616;12.872;2024-01-07T02:09:11;3.70;99.90
7684;DHT22;3884;48.616;12.872;2024-01-07T02:11:38;3.60;99.90
7684;DHT22;3884;48.616;12.872;2024-01-07T02:14:05;3.60;99.90
7684;DHT22;3884;48.616;12.872;2024-01-07T02:16:33;3.60;99.90
7684;DHT22;3884;48.616;12.872;2024-01-07T02:19:00;3.60;99.90
7684;DHT22;3884;48.616;12.872;2024-01-07T02:21:27;3.60;99.90
7684;DHT22;3884;48.616;12.872;2024-01-07T02:23:55;3.60;99.90
7684;DHT22;3884;48.616;12.872;2024-01-07T02:26:24;3.60;99.90
7684;DHT22;3884;48.616;12.872;2024-01-07T02:28:51;3.60;99.90
7684;DHT22;3884;48.616;12.872;2024-01-07T02:31:18;3.60;99.90
7684;DHT22;3884;48.616;12.872;2024-01-07T02:33:45;3.60;99.90
7684;DHT22;3884;48.616;12.872;2024-01-07T02:36:15;3.60;99.90
7684;DHT22;3884;48.616;12.872;2024-01-07T02:38:42;3.60;99.90
7684;DHT22;3884;48.616;12.872;2024-01-07T02:41:09;3.60;99.90
7684;DHT22;3884;48.616;12.872;2024-01-07T02:43:38;3.50;99.90
7684;DHT22;3884;48.616;12.872;2024-01-07T02:46:05;3.50;99.90
7684;DHT22;3884;48.616;12.872;2024-01-07T02:48:32;3.60;99.90
7684;DHT22;3884;48.616;12.872;2024-01-07T02:50:59;3.50;99.90
7684;DHT22;3884;48.616;12.872;2024-01-07T02:53:26;3.50;99.90
7684;DHT22;3884;48.616;12.872;2024-01-07T02:55:53;3.50;99.90
7684;DHT22;3884;48.616;12.872;2024-01-07T02:58:20;3.50;99.90
7684;DHT22;3884;48.616;12.872;2024-01-07T03:00:48;3.50;99.90
7684;DHT22;3884;48.616;12.872;2024-01-07T03:03:16;3.50;99.90
7684;DHT22;3884;48.616;12.872;2024-01-07T03:05:43;3.40;99.90
7684;DHT22;3884;48.616;12.872;2024-01-07T03:08:10;3.40;99.90
7684;DHT22;3884;48.616;12.872;2024-01-07T03:10:37;3.50;99.90
7684;DHT22;3884;48.616;12.872;2024-01-07T03:13:04;3.40;99.90
7684;DHT22;3884;48.616;12.872;2024-01-07T03:15:31;3.40;99.90
7684;DHT22;3884;48.616;12.872;2024-01-07T03:18:00;3.40;99.90
7684;DHT22;3884;48.616;12.872;2024-01-07T03:20:27;3.40;99.90
7684;DHT22;3884;48.616;12.872;2024-01-07T03:23:01;3.40;99.90
7684;DHT22;3884;48.616;12.872;2024-01-07T03:25:29;3.40;99.90
7684;DHT22;3884;48.616;12.872;2024-01-07T03:27:56;3.40;99.90
7684;DHT22;3884;48.616;12.872;2024-01-07T03:30:23;3.40;99.90
7684;DHT22;3884;48.616;12.872;2024-01-07T03:32:51;3.40;99.90
7684;DHT22;3884;48.616;12.872;2024-01-07T03:35:20;3.40;99.90
7684;DHT22;3884;48.616;12.872;2024-01-07T03:37:47;3.40;99.90
7684;DHT22;3884;48.616;12.872;2024-01-07T03:40:14;3.40;99.90
7684;DHT22;3884;48.616;12.872;2024-01-07T03:42:41;3.30;99.90
7684;DHT22;3884;48.616;12.872;2024-01-07T03:45:09;3.30;99.90
7684;DHT22;3884;48.616;12.872;2024-01-07T03:47:36;3.30;99.90
7684;DHT22;3884;48.616;12.872;2024-01-07T03:50:03;3.30;99.90
7684;DHT22;3884;48.616;12.872;2024-01-07T03:52:32;3.40;99.90
7684;DHT22;3884;48.616;12.872;2024-01-07T03:55:01;3.40;99.90
7684;DHT22;3884;48.616;12.872;2024-01-07T03:57:28;3.40;99.90
7684;DHT22;3884;48.616;12.872;2024-01-07T03:59:55;3.40;99.90
7684;DHT22;3884;48.616;12.872;2024-01-07T04:02:23;3.40;99.90
7684;DHT22;3884;48.616;12.872;2024-01-07T04:04:50;3.30;99.90
7684;DHT22;3884;48.616;12.872;2024-01-07T04:07:18;3.30;99.90
7684;DHT22;3884;48.616;12.872;2024-01-07T04:09:46;3.30;99.90
7684;DHT22;3884;48.616;12.872;2024-01-07T04:12:13;3.30;99.90
7684;DHT22;3884;48.616;12.872;2024-01-07T04:14:40;3.20;99.90
7684;DHT22;3884;48.616;12.872;2024-01-07T04:17:09;3.20;99.90
7684;DHT22;3884;48.616;12.872;2024-01-07T04:19:36;3.20;99.90
7684;DHT22;3884;48.616;12.872;2024-01-07T04:22:04;3.10;99.90
7684;DHT22;3884;48.616;12.872;2024-01-07T04:24:30;3.10;99.90
7684;DHT22;3884;48.616;12.872;2024-01-07T04:26:59;3.10;99.90
7684;DHT22;3884;48.616;12.872;2024-01-07T04:29:26;3.20;99.90
7684;DHT22;3884;48.616;12.872;2024-01-07T04:31:53;3.20;99.90
7684;DHT22;3884;48.616;12.872;2024-01-07T04:34:20;3.20;99.90
7684;DHT22;3884;48.616;12.872;2024-01-07T04:36:48;3.10;99.90
7684;DHT22;3884;48.616;12.872;2024-01-07T04:39:15;3.10;99.90
7684;DHT22;3884;48.616;12.872;2024-01-07T04:41:42;3.00;99.90
7684;DHT22;3884;48.616;12.872;2024-01-07T04:44:10;3.10;99.90
7684;DHT22;3884;48.616;12.872;2024-01-07T04:46:38;3.00;99.90
7684;DHT22;3884;48.616;12.872;2024-01-07T04:49:05;3.00;99.90
7684;DHT22;3884;48.616;12.872;2024-01-07T04:51:32;3.00;99.90
7684;DHT22;3884;48.616;12.872;2024-01-07T04:53:59;3.10;99.90
7684;DHT22;3884;48.616;12.872;2024-01-07T04:56:26;2.90;99.90
7684;DHT22;3884;48.616;12.872;2024-01-07T04:58:53;2.90;99.90
7684;DHT22;3884;48.616;12.872;2024-01-07T05:01:21;2.90;99.90
7684;DHT22;3884;48.616;12.872;2024-01-07T05:03:48;2.90;99.90
7684;DHT22;3884;48.616;12.872;2024-01-07T05:06:15;2.90;99.90
7684;DHT22;3884;48.616;12.872;2024-01-07T05:08:42;2.80;99.90
7684;DHT22;3884;48.616;12.872;2024-01-07T05:11:09;2.80;99.90
7684;DHT22;3884;48.616;12.872;2024-01-07T05:13:37;2.70;99.90
7684;DHT22;3884;48.616;12.872;2024-01-07T05:16:04;2.70;99.90
7684;DHT22;3884;48.616;12.872;2024-01-07T05:18:32;2.70;99.90
7684;DHT22;3884;48.616;12.872;2024-01-07T05:21:00;2.70;99.90
7684;DHT22;3884;48.616;12.872;2024-01-07T05:23:27;2.70;99.90
7684;DHT22;3884;48.616;12.872;2024-01-07T05:25:54;2.70;99.90
7684;DHT22;3884;48.616;12.872;2024-01-07T05:28:21;2.70;99.90
7684;DHT22;3884;48.616;12.872;2024-01-07T05:30:49;2.60;99.90
7684;DHT22;3884;48.616;12.872;2024-01-07T05:33:16;2.60;99.90
7684;DHT22;3884;48.616;12.872;2024-01-07T05:35:44;2.60;99.90
7684;DHT22;3884;48.616;12.872;2024-01-07T05:38:11;2.60;99.90
7684;DHT22;3884;48.616;12.872;2024-01-07T05:40:38;2.60;99.90
7684;DHT22;3884;48.616;12.872;2024-01-07T05:43:05;2.70;99.90
7684;DHT22;3884;48.616;12.872;2024-01-07T05:45:32;2.60;99.90
7684;DHT22;3884;48.616;12.872;2024-01-07T05:47:59;2.60;99.90
7684;DHT22;3884;48.616;12.872;2024-01-07T05:50:26;2.60;99.90
7684;DHT22;3884;48.616;12.872;2024-01-07T05:52:54;2.50;99.90
7684;DHT22;3884;48.616;12.872;2024-01-07T05:55:21;2.60;99.90
7684;DHT22;3884;48.616;12.872;2024-01-07T05:57:48;2.60;99.90
7684;DHT22;3884;48.616;12.872;2024-01-07T06:00:16;2.60;99.90
7684;DHT22;3884;48.616;12.872;2024-01-07T06:02:43;2.60;99.90
7684;DHT22;3884;48.616;12.872;2024-01-07T06:05:10;2.60;99.90
7684;DHT22;3884;48.616;12.872;2024-01-07T06:07:37;2.50;99.90
7684;DHT22;3884;48.616;12.872;2024-01-07T06:10:05;2.50;99.90
7684;DHT22;3884;48.616;12.872;2024-01-07T06:12:32;2.50;99.90
7684;DHT22;3884;48.616;12.872;2024-01-07T06:14:59;2.50;99.90
7684;DHT22;3884;48.616;12.872;2024-01-07T06:17:27;2.50;99.90
7684;DHT22;3884;48.616;12.872;2024-01-07T06:19:54;2.50;99.90
7684;DHT22;3884;48.616;12.872;2024-01-07T06:22:21;2.50;99.90
7684;DHT22;3884;48.616;12.872;2024-01-07T06:24:50;2.40;99.90
7684;DHT22;3884;48.616;12.872;2024-01-07T06:27:18;2.40;99.90
7684;DHT22;3884;48.616;12.872;2024-01-07T06:29:45;2.40;99.90
7684;DHT22;3884;48.616;12.872;2024-01-07T06:32:13;2.30;99.90
7684;DHT22;3884;48.616;12.872;2024-01-07T06:34:40;2.20;99.90
7684;DHT22;3884;48.616;12.872;2024-01-07T06:37:07;2.20;99.90
7684;DHT22;3884;48.616;12.872;2024-01-07T06:39:35;2.20;99.90
7684;DHT22;3884;48.616;12.872;2024-01-07T06:42:03;2.20;99.90
7684;DHT22;3884;48.616;12.872;2024-01-07T06:44:32;2.10;99.90
7684;DHT22;3884;48.616;12.872;2024-01-07T06:46:59;2.10;99.90
7684;DHT22;3884;48.616;12.872;2024-01-07T06:49:26;2.20;99.90
7684;DHT22;3884;48.616;12.872;2024-01-07T06:51:53;2.10;99.90
7684;DHT22;3884;48.616;12.872;2024-01-07T06:54:20;2.00;99.90
7684;DHT22;3884;48.616;12.872;2024-01-07T06:56:47;2.00;99.90
7684;DHT22;3884;48.616;12.872;2024-01-07T06:59:14;2.10;99.90
7684;DHT22;3884;48.616;12.872;2024-01-07T07:01:43;2.00;99.90
7684;DHT22;3884;48.616;12.872;2024-01-07T07:04:10;1.90;99.90
7684;DHT22;3884;48.616;12.872;2024-01-07T07:06:37;2.00;99.90
7684;DHT22;3884;48.616;12.872;2024-01-07T07:09:04;2.00;99.90
7684;DHT22;3884;48.616;12.872;2024-01-07T07:11:32;2.00;99.90
7684;DHT22;3884;48.616;12.872;2024-01-07T07:14:00;1.90;99.90
7684;DHT22;3884;48.616;12.872;2024-01-07T07:16:27;1.90;99.90
7684;DHT22;3884;48.616;12.872;2024-01-07T07:18:56;1.90;99.90
7684;DHT22;3884;48.616;12.872;2024-01-07T07:21:23;1.90;99.90
7684;DHT22;3884;48.616;12.872;2024-01-07T07:23:49;1.90;99.90
7684;DHT22;3884;48.616;12.872;2024-01-07T07:26:17;1.80;99.90
7684;DHT22;3884;48.616;12.872;2024-01-07T07:28:43;1.80;99.90
7684;DHT22;3884;48.616;12.872;2024-01-07T07:31:11;1.70;99.90
7684;DHT22;3884;48.616;12.872;2024-01-07T07:33:38;1.70;99.90
7684;DHT22;3884;48.616;12.872;2024-01-07T07:36:07;1.70;99.90
7684;DHT22;3884;48.616;12.872;2024-01-07T07:38:35;1.70;99.90
7684;DHT22;3884;48.616;12.872;2024-01-07T07:41:02;1.70;99.90
7684;DHT22;3884;48.616;12.872;2024-01-07T07:43:29;1.60;99.90
7684;DHT22;3884;48.616;12.872;2024-01-07T07:45:56;1.60;99.90
7684;DHT22;3884;48.616;12.872;2024-01-07T07:48:23;1.60;99.90
7684;DHT22;3884;48.616;12.872;2024-01-07T07:50:51;1.60;99.90
7684;DHT22;3884;48.616;12.872;2024-01-07T07:53:20;1.50;99.90
7684;DHT22;3884;48.616;12.872;2024-01-07T07:55:48;1.50;99.90
7684;DHT22;3884;48.616;12.872;2024-01-07T07:58:15;1.50;99.90
7684;DHT22;3884;48.616;12.872;2024-01-07T08:00:42;1.60;99.90
7684;DHT22;3884;48.616;12.872;2024-01-07T08:03:10;1.50;99.90
7684;DHT22;3884;48.616;12.872;2024-01-07T08:05:37;1.40;99.90
7684;DHT22;3884;48.616;12.872;2024-01-07T08:08:05;1.50;99.90
7684;DHT22;3884;48.616;12.872;2024-01-07T08:10:33;1.50;99.90
7684;DHT22;3884;48.616;12.872;2024-01-07T08:13:00;1.40;99.90
7684;DHT22;3884;48.616;12.872;2024-01-07T08:15:27;1.40;99.90
7684;DHT22;3884;48.616;12.872;2024-01-07T08:17:54;1.40;99.90
7684;DHT22;3884;48.616;12.872;2024-01-07T08:20:21;1.40;99.90
7684;DHT22;3884;48.616;12.872;2024-01-07T08:22:48;1.30;99.90
7684;DHT22;3884;48.616;12.872;2024-01-07T08:25:16;1.30;99.90
7684;DHT22;3884;48.616;12.872;2024-01-07T08:27:44;1.30;99.90
7684;DHT22;3884;48.616;12.872;2024-01-07T08:30:11;1.30;99.90
7684;DHT22;3884;48.616;12.872;2024-01-07T08:32:39;1.30;99.90
7684;DHT22;3884;48.616;12.872;2024-01-07T08:35:06;1.20;99.90
7684;DHT22;3884;48.616;12.872;2024-01-07T08:37:33;1.20;99.90
7684;DHT22;3884;48.616;12.872;2024-01-07T08:40:00;1.20;99.90
7684;DHT22;3884;48.616;12.872;2024-01-07T08:42:27;1.20;99.90
7684;DHT22;3884;48.616;12.872;2024-01-07T08:44:56;1.20;99.90
7684;DHT22;3884;48.616;12.872;2024-01-07T08:47:26;1.20;99.90
7684;DHT22;3884;48.616;12.872;2024-01-07T08:49:54;1.20;99.90
7684;DHT22;3884;48.616;12.872;2024-01-07T08:52:20;1.20;99.90
7684;DHT22;3884;48.616;12.872;2024-01-07T08:54:48;1.20;99.90
7684;DHT22;3884;48.616;12.872;2024-01-07T08:57:14;1.20;99.90
7684;DHT22;3884;48.616;12.872;2024-01-07T08:59:41;1.30;99.90
7684;DHT22;3884;48.616;12.872;2024-01-07T09:02:09;1.20;99.90
7684;DHT22;3884;48.616;12.872;2024-01-07T09:04:36;1.30;99.90
7684;DHT22;3884;48.616;12.872;2024-01-07T09:07:03;1.30;99.90
7684;DHT22;3884;48.616;12.872;2024-01-07T09:09:30;1.20;99.90
7684;DHT22;3884;48.616;12.872;2024-01-07T09:11:57;1.30;99.90
7684;DHT22;3884;48.616;12.872;2024-01-07T09:14:25;1.20;99.90
7684;DHT22;3884;48.616;12.872;2024-01-07T09:16:52;1.30;99.90
7684;DHT22;3884;48.616;12.872;2024-01-07T09:19:21;1.20;99.90
7684;DHT22;3884;48.616;12.872;2024-01-07T09:21:48;1.30;99.90
7684;DHT22;3884;48.616;12.872;2024-01-07T09:24:15;1.30;99.90
7684;DHT22;3884;48.616;12.872;2024-01-07T09:26:44;1.30;99.90
7684;DHT22;3884;48.616;12.872;2024-01-07T09:29:12;1.30;99.90
7684;DHT22;3884;48.616;12.872;2024-01-07T09:31:39;1.30;99.90
7684;DHT22;3884;48.616;12.872;2024-01-07T09:34:06;1.30;99.90
7684;DHT22;3884;48.616;12.872;2024-01-07T09:36:35;1.40;99.90
7684;DHT22;3884;48.616;12.872;2024-01-07T09:39:02;1.40;99.90
7684;DHT22;3884;48.616;12.872;2024-01-07T09:41:30;1.40;99.90
7684;DHT22;3884;48.616;12.872;2024-01-07T09:43:58;1.40;99.90
7684;DHT22;3884;48.616;12.872;2024-01-07T09:46:26;1.40;99.90
7684;DHT22;3884;48.616;12.872;2024-01-07T09:48:55;1.50;99.90
7684;DHT22;3884;48.616;12.872;2024-01-07T09:51:23;1.50;99.90
7684;DHT22;3884;48.616;12.872;2024-01-07T09:53:57;1.60;99.90
7684;DHT22;3884;48.616;12.872;2024-01-07T09:56:31;1.60;99.90
7684;DHT22;3884;48.616;12.872;2024-01-07T09:59:01;1.60;99.90
7684;DHT22;3884;48.616;12.872;2024-01-07T10:01:28;1.60;99.90
7684;DHT22;3884;48.616;12.872;2024-01-07T10:03:55;1.50;99.90
7684;DHT22;3884;48.616;12.872;2024-01-07T10:06:22;1.50;99.90
7684;DHT22;3884;48.616;12.872;2024-01-07T10:08:51;1.40;99.90
7684;DHT22;3884;48.616;12.872;2024-01-07T10:11:18;1.40;99.90
7684;DHT22;3884;48.616;12.872;2024-01-07T10:13:45;1.40;99.90
7684;DHT22;3884;48.616;12.872;2024-01-07T10:16:14;1.40;99.90
7684;DHT22;3884;48.616;12.872;2024-01-07T10:18:41;1.40;99.90
7684;DHT22;3884;48.616;12.872;2024-01-07T10:21:08;1.40;99.90
7684;DHT22;3884;48.616;12.872;2024-01-07T10:23:36;1.40;99.90
7684;DHT22;3884;48.616;12.872;2024-01-07T10:26:06;1.40;99.90
7684;DHT22;3884;48.616;12.872;2024-01-07T10:28:33;1.40;99.90
7684;DHT22;3884;48.616;12.872;2024-01-07T10:31:00;1.50;99.90
7684;DHT22;3884;48.616;12.872;2024-01-07T10:33:31;1.40;99.90
7684;DHT22;3884;48.616;12.872;2024-01-07T10:36:01;1.40;99.90
7684;DHT22;3884;48.616;12.872;2024-01-07T10:38:30;1.30;99.90
7684;DHT22;3884;48.616;12.872;2024-01-07T10:40:59;1.30;99.90
7684;DHT22;3884;48.616;12.872;2024-01-07T10:43:29;1.30;99.90
7684;DHT22;3884;48.616;12.872;2024-01-07T10:46:00;1.30;99.90
7684;DHT22;3884;48.616;12.872;2024-01-07T10:48:30;1.40;99.90
7684;DHT22;3884;48.616;12.872;2024-01-07T10:50:59;1.30;99.90
7684;DHT22;3884;48.616;12.872;2024-01-07T10:53:32;1.40;99.90
7684;DHT22;3884;48.616;12.872;2024-01-07T10:56:00;1.50;99.90
7684;DHT22;3884;48.616;12.872;2024-01-07T10:58:32;1.40;99.90
7684;DHT22;3884;48.616;12.872;2024-01-07T11:00:59;1.50;99.90
7684;DHT22;3884;48.616;12.872;2024-01-07T11:03:37;1.50;99.90
7684;DHT22;3884;48.616;12.872;2024-01-07T11:06:09;1.50;99.90
7684;DHT22;3884;48.616;12.872;2024-01-07T11:08:42;1.60;99.90
7684;DHT22;3884;48.616;12.872;2024-01-07T11:11:15;1.70;99.90
7684;DHT22;3884;48.616;12.872;2024-01-07T11:13:44;1.70;99.90
7684;DHT22;3884;48.616;12.872;2024-01-07T11:16:11;1.70;99.90
7684;DHT22;3884;48.616;12.872;2024-01-07T11:18:52;1.70;99.90
7684;DHT22;3884;48.616;12.872;2024-01-07T11:21:22;1.80;99.90
7684;DHT22;3884;48.616;12.872;2024-01-07T11:23:50;1.60;99.90
7684;DHT22;3884;48.616;12.872;2024-01-07T11:26:31;1.60;99.90
7684;DHT22;3884;48.616;12.872;2024-01-07T11:32:46;1.50;99.90
7684;DHT22;3884;48.616;12.872;2024-01-07T11:35:24;1.40;99.90
7684;DHT22;3884;48.616;12.872;2024-01-07T11:38:14;1.30;99.90
7684;DHT22;3884;48.616;12.872;2024-01-07T11:40:56;1.30;99.90
7684;DHT22;3884;48.616;12.872;2024-01-07T12:03:39;1.60;99.90
7684;DHT22;3884;48.616;12.872;2024-01-07T12:06:07;1.50;99.90
7684;DHT22;3884;48.616;12.872;2024-01-07T12:08:48;1.50;99.90
7684;DHT22;3884;48.616;12.872;2024-01-07T12:11:29;1.40;99.90
7684;DHT22;3884;48.616;12.872;2024-01-07T12:13:56;1.30;99.90
7684;DHT22;3884;48.616;12.872;2024-01-07T12:16:23;1.40;99.90
7684;DHT22;3884;48.616;12.872;2024-01-07T12:18:52;1.40;99.90
7684;DHT22;3884;48.616;12.872;2024-01-07T12:21:19;1.40;99.90
7684;DHT22;3884;48.616;12.872;2024-01-07T12:23:48;1.30;99.90
7684;DHT22;3884;48.616;12.872;2024-01-07T12:26:17;1.30;99.90
7684;DHT22;3884;48.616;12.872;2024-01-07T12:28:45;1.30;99.90
7684;DHT22;3884;48.616;12.872;2024-01-07T12:31:18;1.20;99.90
7684;DHT22;3884;48.616;12.872;2024-01-07T12:33:46;1.20;99.90
7684;DHT22;3884;48.616;12.872;2024-01-07T12:36:14;1.20;99.90
7684;DHT22;3884;48.616;12.872;2024-01-07T12:38:41;1.10;99.90
7684;DHT22;3884;48.616;12.872;2024-01-07T12:41:09;1.10;99.90
7684;DHT22;3884;48.616;12.872;2024-01-07T12:43:36;1.10;99.90
7684;DHT22;3884;48.616;12.872;2024-01-07T12:46:03;1.00;99.90
7684;DHT22;3884;48.616;12.872;2024-01-07T12:48:31;0.90;99.90
7684;DHT22;3884;48.616;12.872;2024-01-07T12:50:58;0.90;99.90
7684;DHT22;3884;48.616;12.872;2024-01-07T12:53:26;0.80;99.90
7684;DHT22;3884;48.616;12.872;2024-01-07T12:55:54;0.80;99.90
7684;DHT22;3884;48.616;12.872;2024-01-07T12:58:21;0.80;99.90
7684;DHT22;3884;48.616;12.872;2024-01-07T13:00:48;0.70;99.90
7684;DHT22;3884;48.616;12.872;2024-01-07T13:03:14;0.80;99.90
7684;DHT22;3884;48.616;12.872;2024-01-07T13:05:44;0.80;99.90
7684;DHT22;3884;48.616;12.872;2024-01-07T13:08:11;0.90;99.90
7684;DHT22;3884;48.616;12.872;2024-01-07T13:10:40;1.00;99.90
7684;DHT22;3884;48.616;12.872;2024-01-07T13:13:07;0.90;99.90
7684;DHT22;3884;48.616;12.872;2024-01-07T13:15:35;0.80;99.90
7684;DHT22;3884;48.616;12.872;2024-01-07T13:18:03;0.90;99.90
7684;DHT22;3884;48.616;12.872;2024-01-07T13:20:30;0.80;99.90
7684;DHT22;3884;48.616;12.872;2024-01-07T13:22:57;0.90;99.90
7684;DHT22;3884;48.616;12.872;2024-01-07T13:25:23;0.90;99.90
7684;DHT22;3884;48.616;12.872;2024-01-07T13:27:52;0.90;99.90
7684;DHT22;3884;48.616;12.872;2024-01-07T13:30:19;0.80;99.90
7684;DHT22;3884;48.616;12.872;2024-01-07T13:32:45;0.90;99.90
7684;DHT22;3884;48.616;12.872;2024-01-07T13:35:14;0.90;99.90
7684;DHT22;3884;48.616;12.872;2024-01-07T13:37:42;0.90;99.90
7684;DHT22;3884;48.616;12.872;2024-01-07T13:40:10;0.90;99.90
7684;DHT22;3884;48.616;12.872;2024-01-07T13:42:39;0.90;99.90
7684;DHT22;3884;48.616;12.872;2024-01-07T13:45:08;0.90;99.90
7684;DHT22;3884;48.616;12.872;2024-01-07T13:47:35;0.90;99.90
7684;DHT22;3884;48.616;12.872;2024-01-07T13:50:02;0.90;99.90
7684;DHT22;3884;48.616;12.872;2024-01-07T13:52:30;0.80;99.90
7684;DHT22;3884;48.616;12.872;2024-01-07T13:54:57;0.80;99.90
7684;DHT22;3884;48.616;12.872;2024-01-07T13:57:24;0.80;99.90
7684;DHT22;3884;48.616;12.872;2024-01-07T13:59:51;0.70;99.90
7684;DHT22;3884;48.616;12.872;2024-01-07T14:02:20;0.80;99.90
7684;DHT22;3884;48.616;12.872;2024-01-07T14:04:48;0.70;99.90
7684;DHT22;3884;48.616;12.872;2024-01-07T14:07:16;0.70;99.90
7684;DHT22;3884;48.616;12.872;2024-01-07T14:09:43;0.70;99.90
7684;DHT22;3884;48.616;12.872;2024-01-07T14:12:11;0.80;99.90
7684;DHT22;3884;48.616;12.872;2024-01-07T14:14:38;0.80;99.90
7684;DHT22;3884;48.616;12.872;2024-01-07T14:17:05;0.80;99.90
7684;DHT22;3884;48.616;12.872;2024-01-07T14:19:36;0.80;99.90
7684;DHT22;3884;48.616;12.872;2024-01-07T14:22:05;0.80;99.90
7684;DHT22;3884;48.616;12.872;2024-01-07T14:24:32;0.80;99.90
7684;DHT22;3884;48.616;12.872;2024-01-07T14:26:59;0.90;99.90
7684;DHT22;3884;48.616;12.872;2024-01-07T14:29:27;0.80;99.90
7684;DHT22;3884;48.616;12.872;2024-01-07T14:31:55;0.90;99.90
7684;DHT22;3884;48.616;12.872;2024-01-07T14:34:22;0.80;99.90
7684;DHT22;3884;48.616;12.872;2024-01-07T14:36:55;0.80;99.90
7684;DHT22;3884;48.616;12.872;2024-01-07T14:39:22;0.90;99.90
7684;DHT22;3884;48.616;12.872;2024-01-07T14:41:49;0.80;99.90
7684;DHT22;3884;48.616;12.872;2024-01-07T14:44:17;0.80;99.90
7684;DHT22;3884;48.616;12.872;2024-01-07T14:46:44;0.80;99.90
7684;DHT22;3884;48.616;12.872;2024-01-07T14:49:10;0.80;99.90
7684;DHT22;3884;48.616;12.872;2024-01-07T14:51:37;0.80;99.90
7684;DHT22;3884;48.616;12.872;2024-01-07T14:54:07;0.90;99.90
7684;DHT22;3884;48.616;12.872;2024-01-07T14:56:34;1.00;99.90
7684;DHT22;3884;48.616;12.872;2024-01-07T14:59:04;1.00;99.90
7684;DHT22;3884;48.616;12.872;2024-01-07T15:01:31;0.90;99.90
7684;DHT22;3884;48.616;12.872;2024-01-07T15:04:00;0.80;99.90
7684;DHT22;3884;48.616;12.872;2024-01-07T15:06:27;0.70;99.90
7684;DHT22;3884;48.616;12.872;2024-01-07T15:08:55;0.60;99.90
7684;DHT22;3884;48.616;12.872;2024-01-07T15:11:25;0.60;99.90
7684;DHT22;3884;48.616;12.872;2024-01-07T15:13:53;0.60;99.90
7684;DHT22;3884;48.616;12.872;2024-01-07T15:16:21;0.50;99.90
7684;DHT22;3884;48.616;12.872;2024-01-07T15:18:49;0.50;99.90
7684;DHT22;3884;48.616;12.872;2024-01-07T15:21:20;0.50;99.90
7684;DHT22;3884;48.616;12.872;2024-01-07T15:24:04;0.50;99.90
7684;DHT22;3884;48.616;12.872;2024-01-07T15:26:34;0.40;99.90
7684;DHT22;3884;48.616;12.872;2024-01-07T15:29:06;0.60;99.90
7684;DHT22;3884;48.616;12.872;2024-01-07T15:31:38;0.60;99.90
7684;DHT22;3884;48.616;12.872;2024-01-07T15:34:07;0.60;99.90
7684;DHT22;3884;48.616;12.872;2024-01-07T15:36:38;0.50;99.90
7684;DHT22;3884;48.616;12.872;2024-01-07T15:39:11;0.50;99.90
7684;DHT22;3884;48.616;12.872;2024-01-07T15:41:42;0.40;99.90
7684;DHT22;3884;48.616;12.872;2024-01-07T15:44:13;0.40;99.90
7684;DHT22;3884;48.616;12.872;2024-01-07T15:46:40;0.30;99.90
7684;DHT22;3884;48.616;12.872;2024-01-07T15:49:08;0.30;99.90
7684;DHT22;3884;48.616;12.872;2024-01-07T15:51:36;0.20;99.90
7684;DHT22;3884;48.616;12.872;2024-01-07T15:54:03;0.10;99.90
7684;DHT22;3884;48.616;12.872;2024-01-07T15:56:33;0.20;99.90
7684;DHT22;3884;48.616;12.872;2024-01-07T15:59:03;0.20;99.90
7684;DHT22;3884;48.616;12.872;2024-01-07T16:01:33;0.20;99.90
7684;DHT22;3884;48.616;12.872;2024-01-07T16:04:00;0.10;99.90
7684;DHT22;3884;48.616;12.872;2024-01-07T16:06:27;0.20;99.90
7684;DHT22;3884;48.616;12.872;2024-01-07T16:08:54;0.10;99.90
7684;DHT22;3884;48.616;12.872;2024-01-07T16:11:21;0.10;99.90
7684;DHT22;3884;48.616;12.872;2024-01-07T16:13:48;0.10;99.90
7684;DHT22;3884;48.616;12.872;2024-01-07T16:16:17;0.10;99.90
7684;DHT22;3884;48.616;12.872;2024-01-07T16:18:45;0.10;99.90
7684;DHT22;3884;48.616;12.872;2024-01-07T16:21:13;0.10;99.90
7684;DHT22;3884;48.616;12.872;2024-01-07T16:23:41;0.00;99.90
7684;DHT22;3884;48.616;12.872;2024-01-07T16:26:08;0.00;99.90
7684;DHT22;3884;48.616;12.872;2024-01-07T16:28:35;0.10;99.90
7684;DHT22;3884;48.616;12.872;2024-01-07T16:31:02;0.10;99.90